Time;durP1;ratioP1;P1;durP2;ratioP2;P2;SDS_P1;SDS_P2;PMS_P1;PMS_P2;Temp;Humidity;BMP_temperature;BMP_pressure;BME280_temperature;BME280_humidity;BME280_pressure;Samples;Min_cycle;Max_cycle;Signal;HPM_P1;HPM_P2
2023/05/03 00:00:06;;;;;;;3.17;1.67;;;;;;;6.91;100.00;102880.44;5075217;28;20059;-44
2023/05/03 00:02:32;;;;;;;5.57;1.92;;;;;;;6.88;100.00;102884.19;5067321;28;20013;-45
2023/05/03 00:04:59;;;;;;;5.28;2.28;;;;;;;6.87;100.00;102884.28;5054388;28;20089;-46
2023/05/03 00:07:25;;;;;;;4.80;1.90;;;;;;;6.82;100.00;102884.63;5059123;28;20037;-44
2023/05/03 00:09:50;;;;;;;6.55;2.10;;;;;;;6.84;100.00;102885.34;5073034;28;20028;-46
2023/05/03 00:12:16;;;;;;;7.45;1.92;;;;;;;6.81;100.00;102891.78;5069138;28;20036;-44
2023/05/03 00:14:41;;;;;;;7.07;2.05;;;;;;;6.83;100.00;102889.00;5069951;28;20481;-43
2023/05/03 00:17:06;;;;;;;5.22;1.90;;;;;;;6.87;100.00;102892.31;5065086;28;20055;-46
2023/05/03 00:19:34;;;;;;;5.60;1.95;;;;;;;6.84;100.00;102889.88;5053940;28;20116;-46
2023/05/03 00:21:59;;;;;;;4.25;2.25;;;;;;;6.86;100.00;102882.59;5065450;28;20040;-47
2023/05/03 00:24:25;;;;;;;6.50;2.03;;;;;;;6.84;100.00;102879.16;5074013;28;20036;-43
2023/05/03 00:26:50;;;;;;;5.00;2.03;;;;;;;6.78;100.00;102880.44;5072774;28;20036;-48
2023/05/03 00:29:17;;;;;;;4.13;2.15;;;;;;;6.70;100.00;102880.97;5052091;28;20048;-48
2023/05/03 00:31:44;;;;;;;3.15;1.75;;;;;;;6.73;100.00;102877.22;5064727;28;20029;-46
2023/05/03 00:34:09;;;;;;;5.63;2.10;;;;;;;6.71;100.00;102882.69;5073143;28;20029;-49
2023/05/03 00:36:35;;;;;;;4.30;2.05;;;;;;;6.72;100.00;102876.38;5072977;28;20028;-46
2023/05/03 00:39:00;;;;;;;4.30;2.10;;;;;;;6.72;100.00;102887.09;5066863;28;20139;-47
2023/05/03 00:41:25;;;;;;;8.35;1.95;;;;;;;6.73;100.00;102877.22;5073011;28;20039;-44
2023/05/03 00:43:51;;;;;;;6.65;2.33;;;;;;;6.69;100.00;102884.63;5073150;28;20056;-44
2023/05/03 00:46:16;;;;;;;5.43;2.28;;;;;;;6.66;100.00;102889.31;5074239;28;20040;-47
2023/05/03 00:48:42;;;;;;;8.80;2.13;;;;;;;6.60;100.00;102899.47;5069466;28;20039;-45
2023/05/03 00:51:09;;;;;;;6.95;2.10;;;;;;;6.58;100.00;102897.88;5053416;28;20048;-44
2023/05/03 00:53:35;;;;;;;6.22;2.17;;;;;;;6.55;100.00;102893.59;5051874;28;20037;-44
2023/05/03 00:56:04;;;;;;;5.55;2.10;;;;;;;6.57;100.00;102890.81;5061067;28;20040;-45
2023/05/03 00:58:32;;;;;;;;;;;;;;;6.62;100.00;102895.84;5071540;28;20090;-46
2023/05/03 01:00:57;;;;;;;4.50;1.90;;;;;;;6.55;100.00;102901.59;5073713;28;19908;-46
2023/05/03 01:03:23;;;;;;;4.30;2.00;;;;;;;6.53;100.00;102910.69;5070313;28;20036;-45
2023/05/03 01:06:10;;;;;;;5.50;2.25;;;;;;;6.52;100.00;102907.19;5066055;28;20043;-43
2023/05/03 01:09:11;;;;;;;7.85;2.25;;;;;;;6.49;100.00;102906.53;5058731;28;20087;-48
2023/05/03 01:11:58;;;;;;;4.43;2.10;;;;;;;6.46;100.00;102907.59;5067863;28;20029;-44
2023/05/03 01:15:10;;;;;;;3.55;2.30;;;;;;;6.40;100.00;102901.78;5073543;28;20032;-45
2023/05/03 01:17:39;;;;;;;6.10;2.60;;;;;;;6.44;100.00;102897.97;5043623;28;20574;-47
2023/05/03 01:20:12;;;;;;;9.40;2.38;;;;;;;6.42;100.00;102889.19;5064142;28;20089;-44
2023/05/03 01:22:58;;;;;;;3.63;2.20;;;;;;;6.40;100.00;102885.75;5052871;28;20041;-45
2023/05/03 01:25:23;;;;;;;5.30;2.20;;;;;;;6.38;100.00;102888.56;5059682;28;20060;-42
2023/05/03 01:27:49;;;;;;;4.53;2.10;;;;;;;6.35;100.00;102884.25;5053114;28;20072;-43
2023/05/03 01:30:15;;;;;;;3.92;2.38;;;;;;;6.35;100.00;102884.25;5065100;28;20566;-43
2023/05/03 01:32:58;;;;;;;5.50;2.33;;;;;;;6.31;100.00;102885.41;5072767;28;20028;-46
2023/05/03 01:35:42;;;;;;;7.25;2.75;;;;;;;6.30;100.00;102874.84;5051448;28;20033;-44
2023/05/03 01:38:09;;;;;;;4.50;2.22;;;;;;;6.30;100.00;102869.50;5051706;28;20039;-46
2023/05/03 01:40:51;;;;;;;10.18;2.25;;;;;;;6.24;100.00;102872.56;5051583;28;20043;-45
2023/05/03 01:43:18;;;;;;;8.48;2.53;;;;;;;6.15;100.00;102871.38;5052354;28;20032;-48
2023/05/03 01:45:43;;;;;;;8.80;2.45;;;;;;;6.16;100.00;102862.38;5050829;28;20112;-44
2023/05/03 01:48:10;;;;;;;3.60;2.10;;;;;;;6.21;100.00;102862.94;5052981;28;20062;-43
2023/05/03 01:50:36;;;;;;;6.82;2.58;;;;;;;6.22;100.00;102851.28;5043395;28;20511;-46
2023/05/03 01:53:01;;;;;;;7.82;2.60;;;;;;;6.17;100.00;102837.38;5051148;28;20224;-47
2023/05/03 01:55:28;;;;;;;4.78;2.50;;;;;;;6.14;100.00;102826.91;5064701;28;20090;-44
2023/05/03 01:57:53;;;;;;;4.95;2.45;;;;;;;6.12;100.00;102823.47;5069990;28;20056;-47
2023/05/03 02:00:19;;;;;;;10.00;2.90;;;;;;;6.08;100.00;102817.47;5070280;28;20056;-46
2023/05/03 02:02:44;;;;;;;7.13;3.17;;;;;;;6.07;100.00;102820.25;5057646;28;20040;-49
2023/05/03 02:05:11;;;;;;;5.68;2.83;;;;;;;6.08;100.00;102819.28;5056211;28;20041;-44
2023/05/03 02:07:37;;;;;;;3.40;2.80;;;;;;;6.03;100.00;102813.38;5054663;28;20067;-45
2023/05/03 02:10:06;;;;;;;10.77;3.05;;;;;;;6.02;100.00;102823.22;5071722;28;20207;-47
2023/05/03 02:12:31;;;;;;;8.35;3.25;;;;;;;6.02;100.00;102833.06;5055375;28;20537;-45
2023/05/03 02:14:57;;;;;;;6.68;2.95;;;;;;;5.97;100.00;102840.53;5057387;28;20029;-44
2023/05/03 02:17:25;;;;;;;6.32;3.10;;;;;;;6.00;100.00;102834.97;5050858;28;20049;-46
2023/05/03 02:19:50;;;;;;;;;;;;;;;6.02;100.00;102847.28;5052451;28;20033;-45
2023/05/03 02:22:16;;;;;;;8.75;3.15;;;;;;;6.05;100.00;102839.06;5036723;28;20328;-44
2023/05/03 02:24:42;;;;;;;7.03;2.65;;;;;;;6.05;100.00;102844.41;5072279;28;20056;-45
2023/05/03 02:27:07;;;;;;;11.13;3.58;;;;;;;6.01;100.00;102852.75;5071908;28;20446;-44
2023/05/03 02:29:33;;;;;;;8.18;3.60;;;;;;;5.95;100.00;102854.03;5070555;28;20504;-46
2023/05/03 02:31:58;;;;;;;7.22;3.10;;;;;;;5.96;100.00;102869.09;5069843;28;20032;-44
2023/05/03 02:34:23;;;;;;;5.95;3.33;;;;;;;5.89;100.00;102865.06;5070454;28;20170;-44
2023/05/03 02:36:49;;;;;;;10.23;3.42;;;;;;;5.96;100.00;102862.88;5071088;28;20111;-46
2023/05/03 02:39:14;;;;;;;7.25;3.60;;;;;;;5.97;100.00;102868.13;5071599;28;20107;-45
2023/05/03 02:41:40;;;;;;;7.15;3.50;;;;;;;5.92;100.00;102876.44;5065853;28;20122;-45
2023/05/03 02:44:05;;;;;;;6.50;3.25;;;;;;;5.94;100.00;102868.31;5051534;28;20033;-44
2023/05/03 02:46:31;;;;;;;9.10;3.50;;;;;;;5.91;100.00;102869.34;5055072;28;20024;-47
2023/05/03 02:48:56;;;;;;;9.70;3.22;;;;;;;5.87;100.00;102862.50;5067708;28;20029;-48
2023/05/03 02:51:21;;;;;;;10.02;3.30;;;;;;;5.82;100.00;102864.63;5064325;28;20033;-47
2023/05/03 02:53:47;;;;;;;7.85;3.60;;;;;;;5.80;100.00;102861.19;5069732;28;20063;-46
2023/05/03 02:56:12;;;;;;;10.38;3.60;;;;;;;5.83;100.00;102865.47;5071212;28;20584;-46
2023/05/03 02:58:38;;;;;;;6.75;3.90;;;;;;;5.85;100.00;102875.09;5058062;28;20063;-45
2023/05/03 03:01:03;;;;;;;8.98;3.70;;;;;;;5.77;100.00;102872.09;5062216;28;20021;-45
2023/05/03 03:03:28;;;;;;;13.50;3.92;;;;;;;5.77;100.00;102876.59;5052054;28;20151;-45
2023/05/03 03:05:54;;;;;;;7.22;3.50;;;;;;;5.70;100.00;102892.13;5065363;28;20156;-48
2023/05/03 03:08:21;;;;;;;7.55;3.97;;;;;;;5.68;100.00;102896.72;5071288;28;20048;-44
2023/05/03 03:10:47;;;;;;;10.80;3.70;;;;;;;5.70;100.00;102878.78;5065314;28;20047;-47
2023/05/03 03:13:12;;;;;;;10.48;3.85;;;;;;;5.66;100.00;102885.28;5070458;28;20283;-45
2023/05/03 03:15:37;;;;;;;9.57;3.58;;;;;;;5.63;100.00;102897.00;5068844;28;20124;-46
2023/05/03 03:18:03;;;;;;;7.60;3.92;;;;;;;5.64;100.00;102892.56;5068903;28;20482;-46
2023/05/03 03:20:28;;;;;;;11.48;4.13;;;;;;;5.60;100.00;102888.34;5055858;28;20040;-45
2023/05/03 03:22:54;;;;;;;6.80;3.88;;;;;;;5.56;100.00;102882.34;5066819;28;20502;-44
2023/05/03 03:25:20;;;;;;;5.85;3.70;;;;;;;5.58;100.00;102882.25;5069742;28;20056;-44
2023/05/03 03:27:45;;;;;;;6.78;3.70;;;;;;;5.47;100.00;102875.78;5071613;28;20029;-46
2023/05/03 03:30:11;;;;;;;6.50;4.38;;;;;;;5.40;100.00;102882.50;5066184;28;20035;-45
2023/05/03 03:32:36;;;;;;;6.22;3.55;;;;;;;5.39;100.00;102880.75;5054215;28;20021;-46
2023/05/03 03:35:01;;;;;;;9.43;4.47;;;;;;;5.41;100.00;102892.19;5054272;28;20067;-43
2023/05/03 03:37:27;;;;;;;13.40;4.57;;;;;;;5.36;100.00;102899.66;5053388;28;20100;-46
2023/05/03 03:39:52;;;;;;;10.43;4.60;;;;;;;5.31;100.00;102901.75;5057911;28;20263;-45
2023/05/03 03:42:18;;;;;;;8.85;4.28;;;;;;;5.31;100.00;102917.75;5070471;28;20020;-43
2023/05/03 03:44:43;;;;;;;11.32;4.00;;;;;;;5.34;100.00;102909.56;5049016;28;20063;-44
2023/05/03 03:47:09;;;;;;;9.63;4.18;;;;;;;5.34;100.00;102912.22;5053942;28;20060;-43
2023/05/03 03:49:35;;;;;;;6.45;4.25;;;;;;;5.34;100.00;102914.91;5052858;28;20471;-48
2023/05/03 03:52:00;;;;;;;8.80;4.32;;;;;;;5.35;100.00;102908.63;5065257;28;20072;-45
2023/05/03 03:54:25;;;;;;;9.20;4.05;;;;;;;5.38;100.00;102912.91;5057569;28;20061;-44
2023/05/03 03:56:52;;;;;;;9.48;4.60;;;;;;;5.35;100.00;102924.66;5053632;28;20021;-46
2023/05/03 03:59:17;;;;;;;11.32;4.28;;;;;;;5.32;100.00;102919.50;5053021;28;20029;-44
2023/05/03 04:01:43;;;;;;;7.55;3.75;;;;;;;5.30;100.00;102924.06;5051546;28;20111;-48
2023/05/03 04:04:09;;;;;;;12.15;4.38;;;;;;;5.33;100.00;102923.88;5040814;28;20280;-45
2023/05/03 04:06:34;;;;;;;7.15;4.00;;;;;;;5.33;100.00;102933.69;5053284;28;20021;-47
2023/05/03 04:08:59;;;;;;;7.35;3.70;;;;;;;5.38;100.00;102924.44;5053062;28;20143;-45
2023/05/03 04:11:26;;;;;;;9.90;3.55;;;;;;;5.42;100.00;102917.09;5051671;28;20036;-46
2023/05/03 04:13:51;;;;;;;5.57;3.53;;;;;;;5.41;100.00;102913.56;5052226;28;20488;-47
2023/05/03 04:16:17;;;;;;;8.75;3.83;;;;;;;5.39;100.00;102915.47;5057345;28;20127;-46
2023/05/03 04:18:43;;;;;;;10.68;4.38;;;;;;;5.36;100.00;102913.00;5061020;28;20028;-45
2023/05/03 04:21:08;;;;;;;14.23;3.50;;;;;;;5.41;100.00;102912.72;5058655;28;20253;-44
2023/05/03 04:23:33;;;;;;;11.65;3.83;;;;;;;5.41;100.00;102912.72;5051992;28;20029;-47
2023/05/03 04:25:59;;;;;;;10.95;3.47;;;;;;;5.46;100.00;102910.59;5051662;28;20025;-43
2023/05/03 04:28:25;;;;;;;9.05;3.50;;;;;;;5.44;100.00;102896.50;5065285;28;20316;-44
2023/05/03 04:30:52;;;;;;;9.90;4.18;;;;;;;5.40;100.00;102895.84;5071488;28;20032;-45
2023/05/03 04:33:17;;;;;;;10.40;4.03;;;;;;;5.41;100.00;102897.53;5065225;28;20025;-45
2023/05/03 04:35:43;;;;;;;6.63;3.75;;;;;;;5.43;100.00;102905.47;5063926;28;20124;-47
2023/05/03 04:38:08;;;;;;;7.45;4.35;;;;;;;5.43;100.00;102900.97;5055245;28;20132;-45
2023/05/03 04:40:34;;;;;;;11.90;3.65;;;;;;;5.52;100.00;102906.69;5062471;28;20044;-49
2023/05/03 04:42:59;;;;;;;7.10;3.50;;;;;;;5.49;100.00;102900.56;5064951;28;20514;-44
2023/05/03 04:45:25;;;;;;;5.90;3.10;;;;;;;5.53;100.00;102895.03;5070602;28;20040;-48
2023/05/03 04:47:51;;;;;;;13.50;5.15;;;;;;;5.56;100.00;102897.53;5061251;28;20090;-45
2023/05/03 04:50:16;;;;;;;4.63;3.17;;;;;;;5.63;100.00;102904.16;5066003;28;20438;-46
2023/05/03 04:52:42;;;;;;;7.13;4.07;;;;;;;5.66;100.00;102906.63;5059566;28;20112;-45
2023/05/03 04:55:08;;;;;;;13.95;3.70;;;;;;;5.70;100.00;102905.50;5067224;28;20072;-48
2023/05/03 04:57:33;;;;;;;13.45;4.05;;;;;;;5.71;100.00;102902.75;5050020;28;20025;-45
2023/05/03 04:59:59;;;;;;;8.85;3.10;;;;;;;5.76;100.00;102907.75;5060996;28;20025;-48
2023/05/03 05:02:25;;;;;;;10.80;3.85;;;;;;;5.76;100.00;102907.75;5050252;28;20474;-46
2023/05/03 05:04:51;;;;;;;11.82;3.50;;;;;;;5.85;100.00;102904.50;5050250;28;20422;-48
2023/05/03 05:07:16;;;;;;;16.77;3.33;;;;;;;5.90;100.00;102910.41;5059540;28;20024;-50
2023/05/03 05:09:42;;;;;;;7.63;3.00;;;;;;;5.99;100.00;102916.13;5061834;28;21038;-46
2023/05/03 05:12:07;;;;;;;10.77;3.35;;;;;;;6.04;100.00;102908.66;5055949;28;20045;-46
2023/05/03 05:14:33;;;;;;;7.30;3.00;;;;;;;6.03;100.00;102909.59;5065655;28;20032;-44
2023/05/03 05:16:58;;;;;;;7.40;2.72;;;;;;;6.09;100.00;102915.41;5064661;28;20097;-46
2023/05/03 05:19:24;;;;;;;7.65;3.05;;;;;;;6.15;100.00;102919.50;5061459;28;20497;-47
2023/05/03 05:21:50;;;;;;;8.82;2.85;;;;;;;6.20;100.00;102916.53;5048027;28;20603;-47
2023/05/03 05:24:16;;;;;;;20.25;4.93;;;;;;;6.18;100.00;102929.97;5058547;28;20028;-46
2023/05/03 05:26:42;;;;;;;6.47;2.85;;;;;;;6.25;100.00;102925.09;5060714;28;20055;-47
2023/05/03 05:29:07;;;;;;;5.75;3.20;;;;;;;6.37;100.00;102922.47;5065300;28;20037;-50
2023/05/03 05:31:33;;;;;;;7.70;3.10;;;;;;;6.45;100.00;102926.41;5064572;28;20154;-44
2023/05/03 05:33:59;;;;;;;10.93;4.25;;;;;;;6.52;100.00;102933.94;5062686;28;20040;-45
2023/05/03 05:36:25;;;;;;;12.15;3.05;;;;;;;6.64;100.00;102926.91;5062256;28;20123;-45
2023/05/03 05:38:50;;;;;;;7.18;2.75;;;;;;;6.69;100.00;102926.56;5062441;28;20037;-45
2023/05/03 05:41:15;;;;;;;14.25;2.88;;;;;;;6.85;100.00;102929.91;5064448;28;20405;-45
2023/05/03 05:43:41;;;;;;;6.47;2.42;;;;;;;6.98;100.00;102920.06;5063388;28;20180;-47
2023/05/03 05:46:07;;;;;;;7.95;2.65;;;;;;;7.10;100.00;102915.66;5063927;28;20040;-48
2023/05/03 05:48:32;;;;;;;6.35;2.30;;;;;;;7.31;100.00;102920.47;5063834;28;20074;-45
2023/05/03 05:50:57;;;;;;;6.88;2.58;;;;;;;7.74;100.00;102909.31;5061169;28;20040;-44
2023/05/03 05:53:23;;;;;;;6.00;2.45;;;;;;;8.19;100.00;102912.22;5061291;28;20036;-45
2023/05/03 05:55:49;;;;;;;8.35;2.35;;;;;;;8.85;100.00;102916.13;5061929;28;20039;-48
2023/05/03 05:58:14;;;;;;;6.85;2.25;;;;;;;9.43;100.00;102906.09;5062940;28;20028;-48
2023/05/03 06:00:41;;;;;;;4.78;2.20;;;;;;;10.21;100.00;102906.88;5051758;28;20497;-47
2023/05/03 06:03:06;;;;;;;5.38;2.10;;;;;;;10.93;100.00;102910.66;5055249;28;20048;-48
2023/05/03 06:05:32;;;;;;;5.75;2.28;;;;;;;11.82;97.91;102909.00;5062560;28;20457;-47
2023/05/03 06:07:57;;;;;;;4.97;1.80;;;;;;;12.43;90.64;102907.06;5063350;28;20040;-46
2023/05/03 06:10:22;;;;;;;7.32;1.70;;;;;;;12.70;88.65;102912.56;5058139;28;20193;-48
2023/05/03 06:12:49;;;;;;;6.97;1.67;;;;;;;13.17;81.52;102909.00;5053772;28;20374;-45
2023/05/03 06:15:14;;;;;;;4.97;1.60;;;;;;;13.26;81.62;102913.53;5057965;28;20128;-48
2023/05/03 06:17:40;;;;;;;9.32;1.80;;;;;;;13.98;78.64;102913.69;5056817;28;20044;-46
2023/05/03 06:20:10;;;;;;;4.90;1.85;;;;;;;14.68;74.94;102921.94;5054646;28;20447;-45
2023/05/03 06:22:35;;;;;;;3.65;1.30;;;;;;;14.88;70.43;102919.91;5048848;28;20048;-46
2023/05/03 06:25:01;;;;;;;5.75;1.55;;;;;;;14.91;69.99;102908.72;5047493;28;20064;-49
2023/05/03 06:27:26;;;;;;;3.30;1.40;;;;;;;15.07;66.86;102906.09;5050270;28;20036;-49
2023/05/03 06:29:51;;;;;;;5.72;1.75;;;;;;;14.49;66.71;102912.13;5048848;28;20351;-48
2023/05/03 06:32:18;;;;;;;6.13;1.58;;;;;;;14.08;67.86;102902.78;5055421;28;20428;-46
2023/05/03 06:34:43;;;;;;;4.80;1.40;;;;;;;14.07;69.91;102901.09;5052469;28;20017;-44
2023/05/03 06:37:08;;;;;;;6.35;1.75;;;;;;;14.10;67.07;102898.91;5051485;28;20372;-46
2023/05/03 06:39:34;;;;;;;3.80;1.70;;;;;;;14.22;66.93;102894.13;5050497;28;20085;-44
2023/05/03 06:41:59;;;;;;;7.70;1.63;;;;;;;14.20;66.65;102886.16;5054428;28;20065;-45
2023/05/03 06:44:25;;;;;;;6.10;1.45;;;;;;;14.40;65.77;102896.78;5052176;28;20471;-46
2023/05/03 06:46:51;;;;;;;3.15;1.10;;;;;;;15.07;66.55;102889.84;5046629;28;20517;-44
2023/05/03 06:49:16;;;;;;;8.30;1.75;;;;;;;15.75;63.76;102882.66;5053120;28;20093;-48
2023/05/03 06:51:42;;;;;;;7.75;1.20;;;;;;;16.10;60.13;102883.38;5048485;28;20052;-45
2023/05/03 06:54:08;;;;;;;5.50;1.73;;;;;;;15.85;61.22;102887.91;5049142;28;20487;-46
2023/05/03 06:56:34;;;;;;;5.43;1.60;;;;;;;16.66;59.33;102881.63;5066999;28;20039;-46
2023/05/03 06:59:00;;;;;;;4.18;1.15;;;;;;;16.60;56.47;102887.78;5070263;28;20025;-48
2023/05/03 07:01:26;;;;;;;4.03;1.30;;;;;;;15.76;57.98;102889.78;5063899;28;20035;-46
2023/05/03 07:03:52;;;;;;;7.60;1.40;;;;;;;16.20;58.72;102878.63;5048591;28;20029;-46
2023/05/03 07:06:17;;;;;;;5.43;1.02;;;;;;;16.48;57.09;102883.69;5050495;28;20021;-47
2023/05/03 07:08:43;;;;;;;7.20;1.40;;;;;;;16.51;54.55;102878.78;5059282;28;20062;-50
2023/05/03 07:11:08;;;;;;;6.65;1.20;;;;;;;16.20;56.19;102870.47;5069451;28;20074;-47
2023/05/03 07:13:34;;;;;;;4.75;1.30;;;;;;;16.23;54.90;102870.13;5069609;28;20078;-47
2023/05/03 07:16:00;;;;;;;6.20;1.40;;;;;;;16.68;54.48;102874.16;5047724;28;20027;-46
2023/05/03 07:18:25;;;;;;;6.07;1.45;;;;;;;16.97;52.77;102862.72;5060827;28;20043;-47
2023/05/03 07:20:51;;;;;;;5.88;1.17;;;;;;;16.74;51.46;102872.63;5048516;28;20033;-47
2023/05/03 07:23:16;;;;;;;7.93;1.42;;;;;;;16.08;53.29;102856.38;5052808;28;20029;-47
2023/05/03 07:25:42;;;;;;;5.88;1.17;;;;;;;15.95;54.11;102862.31;5051036;28;20025;-48
2023/05/03 07:28:07;;;;;;;5.13;1.08;;;;;;;15.49;54.57;102864.56;5049795;28;20474;-45
2023/05/03 07:30:33;;;;;;;3.70;1.10;;;;;;;15.55;54.92;102846.78;5048824;28;20387;-44
2023/05/03 07:32:58;;;;;;;4.35;1.38;;;;;;;15.40;56.57;102857.41;5050084;28;20033;-45
2023/05/03 07:35:25;;;;;;;3.33;1.02;;;;;;;15.40;55.91;102853.84;5050186;28;20383;-47
2023/05/03 07:37:51;;;;;;;5.72;1.45;;;;;;;15.84;55.54;102849.06;5050482;28;20033;-45
2023/05/03 07:40:16;;;;;;;8.43;2.25;;;;;;;15.53;55.25;102857.81;5050080;28;20398;-46
2023/05/03 07:42:41;;;;;;;5.05;1.58;;;;;;;16.45;53.49;102846.84;5032406;28;20036;-46
2023/05/03 07:45:07;;;;;;;7.00;1.40;;;;;;;17.11;53.07;102855.72;5050412;28;20040;-44
2023/05/03 07:47:36;;;;;;;3.85;1.00;;;;;;;17.69;52.13;102859.84;5050357;28;20131;-46
2023/05/03 07:50:03;;;;;;;5.05;1.30;;;;;;;17.39;50.76;102853.38;5050786;28;20087;-49
2023/05/03 07:52:29;;;;;;;3.83;1.23;;;;;;;16.56;51.81;102853.78;5051373;28;20061;-43
2023/05/03 07:54:54;;;;;;;5.10;1.45;;;;;;;17.72;50.57;102864.94;5049583;28;20064;-45
2023/05/03 07:57:22;;;;;;;5.43;1.30;;;;;;;17.87;49.65;102853.28;5050435;28;20109;-47
2023/05/03 07:59:48;;;;;;;6.15;1.10;;;;;;;18.21;47.97;102842.78;5049958;28;20108;-46
2023/05/03 08:02:13;;;;;;;7.72;1.33;;;;;;;18.28;48.08;102844.78;5049951;28;20108;-45
2023/05/03 08:04:38;;;;;;;3.17;1.27;;;;;;;17.95;48.48;102850.50;5049686;28;20060;-48
2023/05/03 08:07:04;;;;;;;7.28;1.33;;;;;;;17.52;49.52;102852.81;5049921;28;20037;-49
2023/05/03 08:09:31;;;;;;;3.47;1.15;;;;;;;17.46;50.53;102839.91;5050147;28;20447;-47
2023/05/03 08:11:56;;;;;;;3.17;1.27;;;;;;;17.91;50.23;102836.41;5049994;28;20059;-48
2023/05/03 08:14:22;;;;;;;7.57;1.23;;;;;;;18.62;49.65;102842.38;5051156;28;20483;-44
2023/05/03 08:16:48;;;;;;;4.10;1.35;;;;;;;17.62;47.67;102850.69;5053333;28;20091;-47
2023/05/03 08:19:13;;;;;;;4.95;1.15;;;;;;;17.73;47.85;102853.00;5053267;28;20458;-46
2023/05/03 08:21:38;;;;;;;9.60;1.95;;;;;;;18.18;47.89;102845.03;5053326;28;20088;-50
2023/05/03 08:24:07;;;;;;;6.18;1.30;;;;;;;18.52;47.63;102850.00;5053026;28;20067;-50
2023/05/03 08:26:34;;;;;;;4.68;1.52;;;;;;;19.27;46.98;102861.75;5053466;28;20455;-44
2023/05/03 08:29:02;;;;;;;3.22;1.27;;;;;;;19.34;44.45;102865.44;5052974;28;20029;-46
2023/05/03 08:31:27;;;;;;;6.05;1.23;;;;;;;19.05;45.38;102871.78;5053156;28;20028;-48
2023/05/03 08:33:53;;;;;;;4.95;1.30;;;;;;;18.81;45.23;102868.28;5053396;28;20025;-46
2023/05/03 08:36:18;;;;;;;4.82;1.38;;;;;;;19.17;46.71;102866.66;5053238;28;20052;-46
2023/05/03 08:38:43;;;;;;;4.78;1.48;;;;;;;19.65;44.45;102865.19;5051681;28;20056;-48
2023/05/03 08:41:15;;;;;;;9.50;1.58;;;;;;;19.65;43.52;102853.41;5052780;28;20493;-43
2023/05/03 08:43:43;;;;;;;9.52;1.27;;;;;;;18.86;44.88;102859.56;5052927;28;20112;-46
2023/05/03 08:46:12;;;;;;;22.00;1.90;;;;;;;19.24;45.21;102857.53;5052885;28;20025;-44
2023/05/03 08:48:37;;;;;;;22.27;2.10;;;;;;;19.66;44.24;102861.41;5035385;28;20451;-45
2023/05/03 08:51:03;;;;;;;5.93;1.30;;;;;;;19.81;43.73;102869.59;5053305;28;20060;-46
2023/05/03 08:53:29;;;;;;;4.55;1.17;;;;;;;20.60;42.04;102869.47;5053457;28;20395;-46
2023/05/03 08:55:55;;;;;;;7.13;1.30;;;;;;;20.35;41.05;102873.66;5051662;28;20025;-45
2023/05/03 08:58:20;;;;;;;4.65;1.40;;;;;;;19.70;41.40;102870.94;5018642;28;20112;-45
2023/05/03 09:00:45;;;;;;;16.90;1.95;;;;;;;19.36;43.56;102870.72;5052282;28;20039;-45
2023/05/03 09:03:11;;;;;;;14.90;1.85;;;;;;;19.61;41.95;102863.00;5051054;28;20075;-45
2023/05/03 09:05:39;;;;;;;5.40;1.33;;;;;;;19.98;41.40;102863.84;5052595;28;20106;-47
2023/05/03 09:08:08;;;;;;;3.55;1.25;;;;;;;19.67;42.45;102867.75;5051099;28;20387;-47
2023/05/03 09:10:38;;;;;;;9.40;1.77;;;;;;;20.10;41.42;102878.69;5052508;28;20056;-46
2023/05/03 09:13:03;;;;;;;4.63;1.20;;;;;;;19.68;40.77;102878.47;5051739;28;20059;-48
2023/05/03 09:15:29;;;;;;;5.15;1.38;;;;;;;19.45;41.76;102869.56;5052397;28;20033;-44
2023/05/03 09:18:10;;;;;;;6.88;1.85;;;;;;;19.22;42.57;102861.50;5052107;28;20434;-47
2023/05/03 09:20:38;;;;;;;2.78;1.30;;;;;;;19.62;43.44;102859.25;5052046;28;20113;-43
2023/05/03 09:23:03;;;;;;;;;;;;;;;19.99;42.31;102863.66;5052728;28;20500;-49
2023/05/03 09:25:48;;;;;;;6.18;1.88;;;;;;;20.19;41.67;102861.09;5051782;28;20027;-50
2023/05/03 09:28:15;;;;;;;4.47;1.60;;;;;;;20.00;41.32;102856.31;5052016;28;20056;-48
2023/05/03 09:30:41;;;;;;;6.13;1.58;;;;;;;20.68;40.51;102857.53;5051600;28;20431;-48
2023/05/03 09:33:07;;;;;;;3.60;1.40;;;;;;;20.12;41.03;102860.22;5052115;28;20422;-46
2023/05/03 09:35:32;;;;;;;6.93;1.60;;;;;;;20.17;41.89;102846.81;5051852;28;20037;-47
2023/05/03 09:37:59;;;;;;;3.92;1.60;;;;;;;20.26;42.11;102853.81;5050798;28;20102;-46
2023/05/03 09:40:25;;;;;;;4.50;1.33;;;;;;;20.56;43.30;102850.91;5051533;28;20098;-45
2023/05/03 09:43:07;;;;;;;6.35;1.40;;;;;;;20.41;43.04;102853.72;5052033;28;20029;-44
2023/05/03 09:45:34;;;;;;;4.18;1.65;;;;;;;20.70;41.65;102860.91;5051543;28;20035;-45
2023/05/03 09:48:01;;;;;;;4.70;1.20;;;;;;;20.69;42.56;102848.25;5050585;28;20033;-46
2023/05/03 09:50:27;;;;;;;4.03;1.38;;;;;;;20.59;41.54;102850.53;5051480;28;20344;-45
2023/05/03 09:52:52;;;;;;;3.83;1.40;;;;;;;21.03;41.02;102844.66;5051673;28;20467;-47
2023/05/03 09:55:18;;;;;;;5.70;1.60;;;;;;;21.34;40.98;102854.28;5051677;28;20048;-48
2023/05/03 09:57:46;;;;;;;6.63;1.60;;;;;;;21.46;41.45;102849.94;5050008;28;20107;-48
2023/05/03 10:00:12;;;;;;;7.15;1.45;;;;;;;21.35;41.17;102866.91;5049954;28;20021;-49
2023/05/03 10:02:40;;;;;;;5.85;1.50;;;;;;;20.91;43.03;102846.31;5051125;28;20439;-47
2023/05/03 10:05:06;;;;;;;4.95;1.52;;;;;;;21.23;41.25;102847.50;5051091;28;20021;-47
2023/05/03 10:07:32;;;;;;;4.22;1.45;;;;;;;21.45;40.47;102855.63;5033560;28;20029;-49
2023/05/03 10:09:58;;;;;;;6.70;1.45;;;;;;;21.25;41.69;102850.06;5050952;28;20025;-45
2023/05/03 10:12:24;;;;;;;3.50;1.65;;;;;;;21.74;41.91;102842.63;5049773;28;20032;-45
2023/05/03 10:14:51;;;;;;;5.43;1.73;;;;;;;22.40;38.86;102842.69;5051320;28;20479;-47
2023/05/03 10:17:25;;;;;;;5.35;1.65;;;;;;;22.43;38.20;102846.91;5033294;28;20028;-45
2023/05/03 10:20:06;;;;;;;3.78;1.55;;;;;;;22.00;37.84;102850.88;5033839;28;20454;-46
2023/05/03 10:22:31;;;;;;;4.72;1.88;;;;;;;20.97;38.39;102845.47;5049822;28;20049;-47
2023/05/03 10:25:00;;;;;;;8.80;2.00;;;;;;;21.13;41.19;102838.81;5051070;28;20029;-48
2023/05/03 10:27:45;;;;;;;7.95;1.70;;;;;;;21.22;42.04;102839.47;5050889;28;20029;-46
2023/05/03 10:30:33;;;;;;;4.50;1.70;;;;;;;21.68;39.39;102839.66;5050270;28;20033;-46
2023/05/03 10:33:11;;;;;;;6.95;1.60;;;;;;;21.74;38.60;102827.03;5050955;28;20063;-45
2023/05/03 10:35:41;;;;;;;3.45;1.58;;;;;;;21.75;39.59;102834.22;5048766;28;20060;-45
2023/05/03 10:38:16;;;;;;;5.75;1.90;;;;;;;21.36;40.22;102823.97;5050998;28;20025;-47
2023/05/03 10:40:43;;;;;;;5.03;1.30;;;;;;;21.53;39.52;102822.56;5032327;28;20040;-48
2023/05/03 10:43:30;;;;;;;4.20;1.77;;;;;;;21.01;40.28;102821.28;5050734;28;20107;-47
2023/05/03 10:46:05;;;;;;;4.22;1.70;;;;;;;21.48;40.21;102825.06;5050505;28;20033;-47
2023/05/03 10:48:32;;;;;;;3.28;1.23;;;;;;;20.82;40.78;102826.44;5049367;28;20025;-48
2023/05/03 10:51:31;;;;;;;4.00;1.48;;;;;;;20.55;39.96;102830.91;5050615;28;20045;-44
2023/05/03 10:53:57;;;;;;;6.15;1.90;;;;;;;20.20;40.99;102819.06;5050473;28;20064;-47
2023/05/03 10:56:22;;;;;;;5.78;1.80;;;;;;;20.15;41.33;102824.28;5050727;28;20029;-44
2023/05/03 10:58:49;;;;;;;5.68;2.00;;;;;;;20.20;41.35;102824.53;5050459;28;20039;-44
2023/05/03 11:01:17;;;;;;;6.65;1.83;;;;;;;20.13;41.59;102819.00;5050290;28;20109;-47
2023/05/03 11:03:45;;;;;;;4.28;1.67;;;;;;;20.67;40.97;102809.34;5048994;28;20041;-48
2023/05/03 11:06:35;;;;;;;5.10;1.60;;;;;;;21.24;41.16;102810.84;5050511;28;20137;-46
2023/05/03 11:09:03;;;;;;;3.75;1.70;;;;;;;21.05;39.81;102808.88;5049091;28;20033;-47
2023/05/03 11:11:28;;;;;;;;;;;;;;;21.10;40.56;102803.63;5049853;28;20017;-43
2023/05/03 11:13:54;;;;;;;2.58;1.65;;;;;;;21.21;40.99;102805.78;5050825;28;19909;-47
2023/05/03 11:16:19;;;;;;;5.55;1.92;;;;;;;21.44;39.75;102788.19;5049273;28;20116;-47
2023/05/03 11:18:47;;;;;;;3.92;1.90;;;;;;;21.25;39.56;102796.13;5050385;28;20033;-45
2023/05/03 11:21:12;;;;;;;;;;;;;;;21.08;40.30;102793.94;5049290;28;20087;-47
2023/05/03 11:23:38;;;;;;;3.80;1.80;;;;;;;21.63;38.55;102795.59;5050321;28;19913;-46